Time;durP1;ratioP1;P1;durP2;ratioP2;P2;SDS_P1;SDS_P2;PMS_P1;PMS_P2;Temp;Humidity;BMP_temperature;BMP_pressure;BME280_temperature;BME280_humidity;BME280_pressure;Samples;Min_cycle;Max_cycle;Signal;HPM_P1;HPM_P2
2022/04/28 00:00:32;;;;;;;18.03;8.90;;;6.60;99.90;;;;;;4927205;28;38039;-80
2022/04/28 00:02:58;;;;;;;21.40;8.90;;;6.60;99.90;;;;;;4927892;28;37595;-80
2022/04/28 00:05:24;;;;;;;18.10;9.50;;;6.50;99.90;;;;;;4944807;28;38629;-80
2022/04/28 00:07:52;;;;;;;16.00;8.67;;;6.50;99.90;;;;;;4940093;28;38241;-79
2022/04/28 00:10:18;;;;;;;20.43;9.40;;;6.50;99.90;;;;;;4950686;28;37069;-79
2022/04/28 00:12:44;;;;;;;19.00;9.87;;;6.40;99.90;;;;;;4948077;28;38697;-79
2022/04/28 00:15:11;;;;;;;21.77;9.20;;;6.40;99.90;;;;;;4923651;28;38860;-79
2022/04/28 00:17:37;;;;;;;20.53;9.37;;;6.40;99.90;;;;;;4931376;28;39240;-80
2022/04/28 00:20:05;;;;;;;22.60;10.20;;;6.30;99.90;;;;;;4951292;28;37277;-80
2022/04/28 00:22:31;;;;;;;21.13;10.50;;;6.40;99.90;;;;;;4933440;28;40564;-80
2022/04/28 00:24:57;;;;;;;28.83;10.67;;;6.30;99.90;;;;;;4957358;28;39452;-80
2022/04/28 00:27:23;;;;;;;21.10;10.33;;;6.30;99.90;;;;;;4929312;28;39040;-80
2022/04/28 00:29:49;;;;;;;22.57;10.33;;;6.30;99.90;;;;;;4928734;28;40900;-80
2022/04/28 00:32:15;;;;;;;19.90;10.90;;;6.30;99.90;;;;;;4931763;28;39338;-80
2022/04/28 00:34:41;;;;;;;16.43;9.27;;;6.20;99.90;;;;;;4938769;28;40790;-79
2022/04/28 00:37:09;;;;;;;23.13;10.33;;;6.20;99.90;;;;;;4931818;28;39369;-79
2022/04/28 00:39:37;;;;;;;17.27;10.57;;;6.30;99.90;;;;;;4927484;28;37208;-79
2022/04/28 00:42:11;;;;;;;25.70;10.60;;;6.20;99.90;;;;;;4927614;28;39185;-80
2022/04/28 00:44:38;;;;;;;23.07;10.83;;;6.20;99.90;;;;;;4933348;28;39806;-79
2022/04/28 00:47:04;;;;;;;22.27;10.57;;;6.20;99.90;;;;;;4935700;28;39524;-80
2022/04/28 00:52:16;;;;;;;20.63;9.83;;;6.20;99.90;;;;;;4938425;28;40653;-80
2022/04/28 00:54:44;;;;;;;17.77;11.27;;;6.20;99.90;;;;;;4943784;28;39312;-81
2022/04/28 00:57:11;;;;;;;16.80;9.70;;;6.10;99.90;;;;;;4911545;28;39037;-80
2022/04/28 00:59:38;;;;;;;19.73;10.60;;;6.10;99.90;;;;;;4947665;28;35136;-81
2022/04/28 01:02:05;;;;;;;14.83;9.03;;;6.10;99.90;;;;;;4926955;28;39849;-80
2022/04/28 01:04:32;;;;;;;24.13;10.93;;;6.10;99.90;;;;;;4947770;28;38049;-80
2022/04/28 01:06:59;;;;;;;22.13;10.90;;;6.10;99.90;;;;;;4926582;28;38882;-80
2022/04/28 01:09:25;;;;;;;19.40;10.70;;;6.00;99.90;;;;;;4931804;28;38291;-80
2022/04/28 01:11:51;;;;;;;21.07;10.60;;;6.00;99.90;;;;;;4959710;28;39888;-80
2022/04/28 01:14:18;;;;;;;18.70;10.10;;;6.00;99.90;;;;;;4958857;28;39846;-80
2022/04/28 01:16:44;;;;;;;21.63;11.50;;;6.10;99.90;;;;;;4944919;28;39198;-80
2022/04/28 01:19:10;;;;;;;22.27;10.53;;;6.00;99.90;;;;;;4936783;28;37734;-80
2022/04/28 01:21:36;;;;;;;21.33;10.73;;;6.00;99.90;;;;;;4962335;28;39005;-81
2022/04/28 01:24:03;;;;;;;20.63;10.47;;;6.00;99.90;;;;;;4963534;28;39063;-81
2022/04/28 01:26:29;;;;;;;25.77;11.47;;;6.00;99.90;;;;;;4941840;28;37594;-80
2022/04/28 01:28:56;;;;;;;21.97;10.33;;;6.00;99.90;;;;;;4935016;28;37888;-81
2022/04/28 01:31:22;;;;;;;19.43;11.50;;;6.00;99.90;;;;;;4962256;28;39475;-80
2022/04/28 01:33:48;;;;;;;14.97;10.10;;;5.90;99.90;;;;;;4944146;28;39852;-80
2022/04/28 01:36:14;;;;;;;18.67;10.63;;;5.90;99.90;;;;;;4940613;28;39226;-80
2022/04/28 01:38:40;;;;;;;18.30;10.33;;;5.90;99.90;;;;;;4960522;28;37266;-79
2022/04/28 01:41:06;;;;;;;21.70;9.70;;;6.00;99.90;;;;;;4943840;28;39188;-80
2022/04/28 01:43:32;;;;;;;21.47;10.73;;;5.90;99.90;;;;;;4963876;28;39913;-80
2022/04/28 01:45:59;;;;;;;16.40;9.70;;;5.90;99.90;;;;;;4940208;28;38417;-79
2022/04/28 01:48:25;;;;;;;19.37;10.57;;;5.90;99.90;;;;;;4949586;28;39395;-81
2022/04/28 01:56:21;;;;;;;21.23;9.60;;;5.80;99.90;;;;;;4957139;28;39287;-79
2022/04/28 01:58:47;;;;;;;25.93;11.40;;;5.80;99.90;;;;;;4960758;28;37116;-79
2022/04/28 02:01:13;;;;;;;18.83;10.07;;;5.80;99.90;;;;;;4935058;28;40900;-80
2022/04/28 02:03:39;;;;;;;15.23;9.90;;;5.80;99.90;;;;;;4949573;28;39239;-79
2022/04/28 02:06:06;;;;;;;21.13;10.63;;;5.80;99.90;;;;;;4927414;28;39254;-79
2022/04/28 02:08:32;;;;;;;18.60;10.53;;;5.70;99.90;;;;;;4926777;28;38958;-80
2022/04/28 02:10:59;;;;;;;19.63;10.67;;;5.70;99.90;;;;;;4939934;28;39495;-80
2022/04/28 02:13:26;;;;;;;22.00;9.97;;;5.70;99.90;;;;;;4937466;28;39025;-79
2022/04/28 02:15:52;;;;;;;20.77;11.10;;;5.70;99.90;;;;;;4942183;28;39502;-79
2022/04/28 02:18:18;;;;;;;23.07;10.67;;;5.60;99.90;;;;;;4939441;28;37249;-80
2022/04/28 02:20:45;;;;;;;20.63;10.27;;;5.60;99.90;;;;;;4939432;28;38871;-79
2022/04/28 02:23:11;;;;;;;16.13;10.00;;;5.60;99.90;;;;;;4926502;28;39553;-80
2022/04/28 02:25:37;;;;;;;18.63;11.10;;;5.60;99.90;;;;;;4945745;28;38333;-80
2022/04/28 02:28:04;;;;;;;18.93;10.60;;;5.50;99.90;;;;;;4941866;28;37399;-81
2022/04/28 02:30:30;;;;;;;18.70;11.17;;;5.50;99.90;;;;;;4931254;28;37401;-79
2022/04/28 02:33:11;;;;;;;21.40;10.57;;;5.50;99.90;;;;;;4928195;28;38666;-80
2022/04/28 02:35:38;;;;;;;16.20;10.63;;;5.40;99.90;;;;;;4930699;28;47453;-80
2022/04/28 02:38:05;;;;;;;18.13;10.33;;;5.40;99.90;;;;;;4919570;28;37186;-80
2022/04/28 02:40:31;;;;;;;15.53;10.50;;;5.40;99.90;;;;;;4925612;28;40537;-79
2022/04/28 02:42:57;;;;;;;17.87;10.20;;;5.40;99.90;;;;;;4937200;28;38299;-80
2022/04/28 02:45:23;;;;;;;19.83;10.27;;;5.30;99.90;;;;;;4941264;28;38640;-79
2022/04/28 02:47:49;;;;;;;17.33;9.40;;;5.30;99.90;;;;;;4922377;28;37849;-79
2022/04/28 02:50:17;;;;;;;19.97;10.27;;;5.40;99.90;;;;;;4933670;28;38791;-80
2022/04/28 02:52:44;;;;;;;17.57;10.30;;;5.30;99.90;;;;;;4921231;28;38111;-80
2022/04/28 02:55:10;;;;;;;19.43;11.27;;;5.30;99.90;;;;;;4939409;28;38898;-80
2022/04/28 02:57:36;;;;;;;19.83;10.57;;;5.20;99.90;;;;;;4920263;28;38082;-80
2022/04/28 03:00:05;;;;;;;18.10;10.23;;;5.20;99.90;;;;;;4956156;28;40373;-80
2022/04/28 03:02:31;;;;;;;16.97;10.77;;;5.30;99.90;;;;;;4930960;28;37192;-79
2022/04/28 03:04:57;;;;;;;21.90;10.60;;;5.30;99.90;;;;;;4911138;28;39802;-79
2022/04/28 03:12:58;;;;;;;19.80;9.73;;;5.30;99.90;;;;;;4940570;28;40247;-79
2022/04/28 03:15:25;;;;;;;20.03;10.40;;;5.30;99.90;;;;;;4919297;28;39324;-79
2022/04/28 03:17:51;;;;;;;22.80;10.17;;;5.30;99.90;;;;;;4940224;28;37178;-79
2022/04/28 03:20:17;;;;;;;20.67;10.50;;;5.30;99.90;;;;;;4914247;28;39445;-79
2022/04/28 03:22:43;;;;;;;15.93;9.70;;;5.40;99.90;;;;;;4911649;28;39663;-80
2022/04/28 03:25:10;;;;;;;19.53;10.03;;;5.50;99.90;;;;;;4912865;28;38476;-79
2022/04/28 03:27:36;;;;;;;18.87;10.90;;;5.50;99.90;;;;;;4922300;28;37421;-80
2022/04/28 03:30:08;;;;;;;17.63;9.47;;;5.50;99.90;;;;;;4927288;28;39239;-80
2022/04/28 03:32:34;;;;;;;26.77;11.63;;;5.60;99.90;;;;;;4942986;28;49157;-80
2022/04/28 03:35:00;;;;;;;16.53;10.27;;;5.70;99.90;;;;;;4939676;28;37893;-80
2022/04/28 03:37:26;;;;;;;19.73;10.83;;;5.70;99.90;;;;;;4943733;28;37700;-80
2022/04/28 03:39:52;;;;;;;21.53;11.43;;;5.70;99.90;;;;;;4921946;28;40016;-80
2022/04/28 03:42:18;;;;;;;23.17;10.87;;;5.70;99.90;;;;;;4939733;28;40439;-79
2022/04/28 03:44:44;;;;;;;23.13;10.93;;;5.70;99.90;;;;;;4914686;28;39211;-79
2022/04/28 03:47:10;;;;;;;23.13;11.63;;;5.70;99.90;;;;;;4920566;28;37794;-79
2022/04/28 03:49:36;;;;;;;23.07;11.77;;;5.60;99.90;;;;;;4939282;28;38750;-79
2022/04/28 03:52:03;;;;;;;18.87;11.10;;;5.60;99.90;;;;;;4920296;28;37773;-80
2022/04/28 03:54:29;;;;;;;24.77;12.23;;;5.60;99.90;;;;;;4938737;28;40592;-78
2022/04/28 03:56:55;;;;;;;27.43;12.30;;;5.60;99.90;;;;;;4940483;28;38217;-81
2022/04/28 03:59:21;;;;;;;27.53;12.27;;;5.60;99.90;;;;;;4941951;28;39612;-78
2022/04/28 04:01:49;;;;;;;20.30;11.40;;;5.50;99.90;;;;;;4925392;28;40295;-79
2022/04/28 04:04:15;;;;;;;23.90;11.70;;;5.50;99.90;;;;;;4938147;28;38580;-80
2022/04/28 04:06:41;;;;;;;22.03;11.70;;;5.50;99.90;;;;;;4933570;28;37986;-81
2022/04/28 04:09:08;;;;;;;25.90;12.17;;;5.50;99.90;;;;;;4891132;28;38978;-82
2022/04/28 04:11:34;;;;;;;23.07;12.47;;;5.40;99.90;;;;;;4921412;28;37494;-80
2022/04/28 04:14:00;;;;;;;25.57;12.70;;;5.40;99.90;;;;;;4918622;28;40023;-81
2022/04/28 04:16:26;;;;;;;23.77;12.00;;;5.30;99.90;;;;;;4915020;28;38805;-78
2022/04/28 04:18:52;;;;;;;22.80;11.87;;;5.30;99.90;;;;;;4915364;28;40806;-80
2022/04/28 04:21:20;;;;;;;22.87;12.73;;;5.30;99.90;;;;;;4937750;28;39091;-80
2022/04/28 04:23:46;;;;;;;23.53;11.50;;;5.30;99.90;;;;;;4922449;28;40063;-80
2022/04/28 04:26:12;;;;;;;22.07;12.53;;;5.30;99.90;;;;;;4917738;28;38435;-80
2022/04/28 04:28:38;;;;;;;27.63;12.67;;;5.30;99.90;;;;;;4917078;28;37758;-80
2022/04/28 04:33:49;;;;;;;23.60;12.43;;;5.30;99.90;;;;;;4936127;28;39252;-80
2022/04/28 04:36:15;;;;;;;24.33;13.73;;;5.30;99.90;;;;;;4933798;28;38477;-80
2022/04/28 04:38:41;;;;;;;21.70;13.23;;;5.30;99.90;;;;;;4935730;28;37654;-79
2022/04/28 04:41:11;;;;;;;25.70;13.50;;;5.30;99.90;;;;;;4919005;28;39789;-77
2022/04/28 04:43:38;;;;;;;22.50;12.07;;;5.30;99.90;;;;;;4917480;28;39003;-80
2022/04/28 04:46:04;;;;;;;21.83;12.73;;;5.30;99.90;;;;;;4929575;28;36379;-80
2022/04/28 04:48:31;;;;;;;27.27;12.50;;;5.40;99.90;;;;;;4919271;28;39693;-80
2022/04/28 04:50:57;;;;;;;28.03;14.20;;;5.40;99.90;;;;;;4923098;28;40515;-79
2022/04/28 04:53:23;;;;;;;23.10;11.97;;;5.50;99.90;;;;;;4937584;28;39574;-81
2022/04/28 04:55:51;;;;;;;17.83;11.10;;;5.50;99.90;;;;;;4927630;28;37858;-80
2022/04/28 04:58:17;;;;;;;24.17;12.13;;;5.60;99.90;;;;;;4919313;28;39415;-81
2022/04/28 05:00:43;;;;;;;24.40;12.03;;;5.60;99.90;;;;;;4915817;28;41771;-80
2022/04/28 05:03:09;;;;;;;23.70;12.40;;;5.60;99.90;;;;;;4917392;28;39791;-81
2022/04/28 05:05:35;;;;;;;26.30;13.07;;;5.60;99.90;;;;;;4918787;28;38707;-80
2022/04/28 05:08:02;;;;;;;20.67;11.30;;;5.60;99.90;;;;;;4943799;28;39659;-82
2022/04/28 05:10:28;;;;;;;20.53;11.30;;;5.70;99.90;;;;;;4943115;28;38814;-79
2022/04/28 05:12:54;;;;;;;25.33;12.07;;;5.70;99.90;;;;;;4948204;28;38670;-80
2022/04/28 05:15:20;;;;;;;25.07;10.80;;;5.80;99.90;;;;;;4927885;28;38504;-80
2022/04/28 05:17:46;;;;;;;23.87;11.73;;;5.80;99.90;;;;;;4949933;28;40594;-80
2022/04/28 05:20:13;;;;;;;20.30;10.93;;;5.90;99.90;;;;;;4925982;28;40162;-80
2022/04/28 05:22:39;;;;;;;22.60;10.97;;;5.90;99.90;;;;;;4929008;28;39297;-80
2022/04/28 05:25:06;;;;;;;20.00;10.20;;;6.00;99.90;;;;;;4937064;28;41136;-80
2022/04/28 05:27:32;;;;;;;15.57;9.37;;;6.10;99.90;;;;;;4936724;28;39596;-80
2022/04/28 05:29:58;;;;;;;26.23;11.10;;;6.20;99.90;;;;;;4945997;28;37567;-80
2022/04/28 05:32:24;;;;;;;23.33;9.67;;;6.30;99.90;;;;;;4956612;28;38253;-81
2022/04/28 05:34:50;;;;;;;16.07;9.03;;;6.30;99.90;;;;;;4935791;28;37615;-80
2022/04/28 05:37:17;;;;;;;17.87;8.87;;;6.40;99.90;;;;;;4962365;28;38636;-80
2022/04/28 05:39:43;;;;;;;19.57;9.13;;;6.40;99.90;;;;;;4958149;28;39498;-80
2022/04/28 05:42:10;;;;;;;18.23;8.37;;;6.50;99.90;;;;;;4945602;28;37646;-80
2022/04/28 05:47:21;;;;;;;16.03;9.00;;;6.70;99.90;;;;;;4957676;28;39207;-80
2022/04/28 05:49:47;;;;;;;18.87;8.60;;;6.80;99.90;;;;;;4962739;28;38910;-81
2022/04/28 05:52:13;;;;;;;15.73;8.20;;;6.80;99.90;;;;;;4940636;28;40621;-80
2022/04/28 05:54:40;;;;;;;17.67;9.20;;;6.90;99.90;;;;;;4949700;28;37007;-80
2022/04/28 05:57:06;;;;;;;21.07;8.60;;;6.90;99.90;;;;;;4933645;28;39781;-80
2022/04/28 05:59:32;;;;;;;18.30;8.67;;;7.00;99.90;;;;;;4947159;28;40128;-80
2022/04/28 06:01:58;;;;;;;20.70;8.37;;;7.00;99.90;;;;;;4952043;28;37814;-80
2022/04/28 06:04:25;;;;;;;12.60;7.70;;;7.10;99.90;;;;;;4929555;28;38634;-81
2022/04/28 06:06:51;;;;;;;17.57;8.30;;;7.20;99.90;;;;;;4942021;28;38463;-80
2022/04/28 06:09:17;;;;;;;11.63;7.63;;;7.30;99.90;;;;;;4948555;28;38091;-80
2022/04/28 06:11:43;;;;;;;15.00;7.07;;;7.40;99.90;;;;;;4949515;28;38609;-79
2022/04/28 06:14:09;;;;;;;12.93;6.70;;;7.40;99.90;;;;;;4950356;28;38297;-79
2022/04/28 06:16:36;;;;;;;18.63;7.30;;;7.50;99.90;;;;;;4938590;28;38834;-79
2022/04/28 06:19:02;;;;;;;15.13;7.27;;;7.60;99.90;;;;;;4949057;28;40386;-81
2022/04/28 06:21:28;;;;;;;15.07;7.33;;;7.60;99.90;;;;;;4948436;28;37269;-80
2022/04/28 06:23:54;;;;;;;19.40;7.00;;;7.70;99.90;;;;;;4969966;28;37437;-80
2022/04/28 06:26:20;;;;;;;12.03;7.03;;;7.80;99.90;;;;;;4944959;28;39412;-79
2022/04/28 06:28:46;;;;;;;16.13;6.80;;;7.90;99.90;;;;;;4967480;28;39307;-79
2022/04/28 06:31:12;;;;;;;15.83;6.30;;;8.00;99.90;;;;;;4963295;28;38042;-80
2022/04/28 06:33:42;;;;;;;16.33;6.73;;;8.00;99.90;;;;;;4948480;28;37919;-79
2022/04/28 06:36:08;;;;;;;16.23;6.17;;;8.10;99.90;;;;;;4947187;28;40475;-79
2022/04/28 06:38:34;;;;;;;14.97;5.90;;;8.20;99.90;;;;;;4960302;28;39493;-79
2022/04/28 06:41:00;;;;;;;15.13;5.07;;;8.20;99.90;;;;;;4938080;28;39346;-79
2022/04/28 06:43:26;;;;;;;10.20;5.07;;;8.30;99.90;;;;;;4936885;28;37971;-80
2022/04/28 06:48:37;;;;;;;10.83;5.47;;;8.50;99.90;;;;;;4950898;28;49039;-78
2022/04/28 06:51:03;;;;;;;12.23;5.30;;;8.60;99.90;;;;;;4956835;28;39335;-80
2022/04/28 06:53:29;;;;;;;13.87;5.00;;;8.70;99.90;;;;;;4962281;28;38177;-80
2022/04/28 06:55:55;;;;;;;15.77;4.93;;;8.80;99.90;;;;;;4952617;28;40560;-79
2022/04/28 06:58:21;;;;;;;12.23;4.27;;;8.90;99.90;;;;;;4945581;28;40632;-78
2022/04/28 07:00:49;;;;;;;12.60;4.77;;;9.00;99.90;;;;;;4964919;28;39333;-80
2022/04/28 07:03:15;;;;;;;12.77;4.43;;;9.10;99.90;;;;;;4941623;28;38145;-80
2022/04/28 07:05:42;;;;;;;13.27;4.30;;;9.20;99.90;;;;;;4960378;28;38656;-78
2022/04/28 07:08:08;;;;;;;10.50;4.77;;;9.30;99.90;;;;;;4945796;28;38894;-78
2022/04/28 07:10:37;;;;;;;12.33;3.80;;;9.40;99.90;;;;;;4963569;28;38757;-79
2022/04/28 07:13:03;;;;;;;17.20;3.97;;;9.70;99.90;;;;;;4925192;28;36281;-78
2022/04/28 07:15:29;;;;;;;10.67;3.60;;;10.00;99.90;;;;;;4945091;28;38968;-77
2022/04/28 07:17:55;;;;;;;9.20;3.80;;;10.20;99.90;;;;;;4922739;28;40685;-77
2022/04/28 07:20:21;;;;;;;11.25;4.32;;;10.30;99.90;;;;;;4943276;28;39488;-77
2022/04/28 07:22:47;;;;;;;8.90;3.90;;;10.30;99.90;;;;;;4918379;28;36343;-77
2022/04/28 07:25:13;;;;;;;10.20;4.15;;;10.40;99.90;;;;;;4937427;28;39213;-78
2022/04/28 07:27:39;;;;;;;13.48;4.20;;;10.50;99.90;;;;;;4939254;28;39877;-78
2022/04/28 07:30:06;;;;;;;10.50;3.83;;;10.60;99.90;;;;;;4921459;28;38384;-77
2022/04/28 07:32:33;;;;;;;9.85;3.67;;;10.70;99.90;;;;;;4935464;28;37156;-78
2022/04/28 07:34:59;;;;;;;10.00;2.92;;;10.80;99.90;;;;;;4939232;28;38781;-78
2022/04/28 07:37:25;;;;;;;10.15;3.40;;;11.00;99.90;;;;;;4918622;28;39627;-76
2022/04/28 07:39:51;;;;;;;9.32;3.55;;;11.10;99.90;;;;;;4912636;28;39397;-76
2022/04/28 07:42:17;;;;;;;11.45;3.90;;;11.10;99.90;;;;;;4928023;28;37789;-77
2022/04/28 07:44:43;;;;;;;10.30;3.03;;;11.20;99.90;;;;;;4925438;28;39833;-78
2022/04/28 07:47:10;;;;;;;8.77;3.33;;;11.30;99.90;;;;;;4923548;28;40275;-81
2022/04/28 07:49:36;;;;;;;7.97;3.33;;;11.60;99.90;;;;;;4926415;28;38408;-78
2022/04/28 07:52:03;;;;;;;12.93;4.07;;;11.80;99.90;;;;;;4934185;28;37203;-79
2022/04/28 07:54:29;;;;;;;13.32;4.25;;;11.90;99.90;;;;;;4942378;28;38514;-80
2022/04/28 07:56:55;;;;;;;12.30;3.22;;;12.00;99.90;;;;;;4922173;28;40390;-79
2022/04/28 07:59:21;;;;;;;10.00;3.55;;;12.00;99.90;;;;;;4943707;28;38978;-79
2022/04/28 08:01:47;;;;;;;9.20;3.47;;;11.90;99.90;;;;;;4920643;28;37133;-80
2022/04/28 08:04:13;;;;;;;10.82;3.40;;;12.00;99.90;;;;;;4945480;28;38467;-80
2022/04/28 08:06:39;;;;;;;10.88;3.50;;;12.00;99.90;;;;;;4934106;28;40555;-81
2022/04/28 08:09:05;;;;;;;9.05;3.38;;;12.00;99.90;;;;;;4924108;28;39209;-78
2022/04/28 08:11:31;;;;;;;10.20;3.35;;;12.00;99.90;;;;;;4939971;28;37790;-80
2022/04/28 08:13:57;;;;;;;10.20;3.45;;;12.10;99.90;;;;;;4939116;28;39446;-80
2022/04/28 08:16:23;;;;;;;8.32;3.25;;;12.40;99.90;;;;;;4945288;28;39665;-79
2022/04/28 08:18:50;;;;;;;12.20;3.47;;;12.70;99.90;;;;;;4950494;28;38886;-80
2022/04/28 08:21:16;;;;;;;10.93;4.28;;;13.00;99.90;;;;;;4959981;28;37530;-80
2022/04/28 08:23:42;;;;;;;8.95;3.10;;;12.70;99.90;;;;;;4957693;28;39619;-79
2022/04/28 08:26:08;;;;;;;10.05;2.92;;;12.70;99.90;;;;;;4949442;28;39761;-81
2022/04/28 08:28:34;;;;;;;10.02;3.42;;;12.90;99.90;;;;;;4945916;28;39297;-80
2022/04/28 08:31:00;;;;;;;11.13;3.20;;;13.20;99.90;;;;;;4963795;28;37189;-81
2022/04/28 08:33:26;;;;;;;12.52;3.60;;;12.70;99.90;;;;;;4963447;28;47770;-81
2022/04/28 08:35:52;;;;;;;12.65;3.17;;;12.80;99.90;;;;;;4946772;28;38357;-80
2022/04/28 08:38:18;;;;;;;10.00;3.35;;;13.30;99.90;;;;;;4912640;28;38671;-78
2022/04/28 08:40:47;;;;;;;10.15;3.10;;;13.30;99.90;;;;;;4948508;28;36652;-79
2022/04/28 08:43:16;;;;;;;8.00;2.53;;;13.30;99.90;;;;;;4921997;28;39408;-80
2022/04/28 08:48:38;;;;;;;8.68;3.22;;;13.60;99.90;;;;;;4955318;28;49082;-79
2022/04/28 08:51:04;;;;;;;13.45;3.45;;;13.80;99.90;;;;;;4952856;28;37531;-79
2022/04/28 08:53:30;;;;;;;6.53;2.65;;;13.90;99.90;;;;;;4936380;28;38073;-79
2022/04/28 08:55:57;;;;;;;8.48;3.45;;;14.00;99.90;;;;;;4940265;28;37714;-79
2022/04/28 08:58:24;;;;;;;14.27;3.35;;;13.90;99.90;;;;;;4954030;28;38890;-79
2022/04/28 09:00:52;;;;;;;9.48;3.28;;;13.80;99.90;;;;;;4952084;28;36245;-78
2022/04/28 09:03:19;;;;;;;10.02;3.05;;;13.80;99.90;;;;;;4968563;23;39565;-75
2022/04/28 09:05:48;;;;;;;10.63;3.58;;;13.80;99.90;;;;;;4971360;28;40214;-74
2022/04/28 09:08:17;;;;;;;7.30;3.67;;;13.90;99.90;;;;;;4976311;28;39515;-74
2022/04/28 09:10:43;;;;;;;9.35;3.90;;;13.60;99.90;;;;;;4974651;28;37005;-74
2022/04/28 09:15:56;;;;;;;8.38;3.88;;;13.60;99.90;;;;;;4973633;28;39605;-76
2022/04/28 09:18:23;;;;;;;9.02;3.75;;;13.70;99.90;;;;;;4954883;28;38975;-75
2022/04/28 09:20:50;;;;;;;8.40;3.55;;;13.80;99.90;;;;;;4972914;28;38228;-76
2022/04/28 09:23:18;;;;;;;9.93;3.63;;;13.90;99.90;;;;;;4973460;28;38881;-73
2022/04/28 09:25:45;;;;;;;10.25;3.67;;;14.20;99.90;;;;;;4967010;28;39502;-74
2022/04/28 09:28:12;;;;;;;10.23;4.18;;;14.60;99.90;;;;;;4956233;28;38776;-74
2022/04/28 09:30:49;;;;;;;9.05;3.97;;;14.40;99.90;;;;;;4972718;28;38657;-75
2022/04/28 09:33:20;;;;;;;9.07;3.97;;;14.60;99.90;;;;;;4965292;28;39582;-76
2022/04/28 09:35:48;;;;;;;11.13;4.00;;;14.60;99.90;;;;;;4955134;28;41698;-75
2022/04/28 09:38:15;;;;;;;14.68;4.40;;;14.80;99.90;;;;;;4975016;28;39340;-75
2022/04/28 09:43:34;;;;;;;9.70;4.30;;;14.90;99.90;;;;;;4974972;28;49510;-74
2022/04/28 09:46:04;;;;;;;12.15;4.53;;;15.10;99.90;;;;;;4964720;28;39068;-74
2022/04/28 09:48:31;;;;;;;10.13;4.45;;;15.20;99.90;;;;;;4972838;28;49322;-73
2022/04/28 09:51:07;;;;;;;10.77;5.05;;;15.00;99.90;;;;;;4962246;28;36914;-73
2022/04/28 09:53:36;;;;;;;10.77;4.25;;;15.10;99.90;;;;;;4954782;28;47176;-74
2022/04/28 09:56:04;;;;;;;10.82;4.18;;;15.30;99.90;;;;;;4965024;28;39727;-74
2022/04/28 09:58:31;;;;;;;13.60;4.45;;;15.40;99.90;;;;;;4961891;28;38841;-74
2022/04/28 10:01:01;;;;;;;9.75;4.57;;;15.30;99.90;;;;;;4968699;28;38278;-75
2022/04/28 10:03:30;;;;;;;11.75;4.50;;;15.10;99.90;;;;;;4972290;28;48516;-75
2022/04/28 10:05:59;;;;;;;11.55;4.80;;;15.10;99.90;;;;;;4955950;28;39524;-74
2022/04/28 10:08:26;;;;;;;16.10;5.10;;;15.30;99.90;;;;;;4959482;28;40004;-74
2022/04/28 10:10:56;;;;;;;12.65;4.45;;;15.40;99.90;;;;;;4957721;28;37569;-74
2022/04/28 10:13:22;;;;;;;10.20;4.72;;;15.10;99.90;;;;;;4965468;28;39625;-74
2022/04/28 10:15:56;;;;;;;10.38;4.72;;;15.00;99.90;;;;;;4975007;28;40412;-74
2022/04/28 10:18:25;;;;;;;12.80;5.30;;;15.40;99.90;;;;;;4946355;28;38765;-74
2022/04/28 10:20:59;;;;;;;13.57;5.10;;;15.80;99.90;;;;;;4969264;28;38232;-74
2022/04/28 10:33:00;;;;;;;11.82;5.15;;;16.00;99.90;;;;;;4960699;28;49662;-74
2022/04/28 10:35:34;;;;;;;11.87;5.63;;;16.00;99.90;;;;;;4969235;28;37626;-74
2022/04/28 10:38:30;;;;;;;9.18;4.78;;;16.30;99.90;;;;;;4969517;28;38725;-74
2022/04/28 10:41:01;;;;;;;7.70;5.05;;;16.60;99.90;;;;;;4963402;28;47248;-74
2022/04/28 10:43:33;;;;;;;12.50;5.75;;;17.10;99.90;;;;;;4974693;28;48941;-74
2022/04/28 10:46:08;;;;;;;9.68;4.80;;;17.00;99.90;;;;;;4976038;28;38411;-74
2022/04/28 10:48:42;;;;;;;10.00;4.85;;;17.00;99.90;;;;;;4970008;28;49371;-74
2022/04/28 10:51:15;;;;;;;12.13;4.50;;;17.00;99.90;;;;;;4953225;28;37443;-74
2022/04/28 10:54:11;;;;;;;10.63;5.75;;;17.00;99.90;;;;;;4969456;28;37374;-74
2022/04/28 10:56:47;;;;;;;10.55;5.18;;;16.90;99.90;;;;;;4950755;28;47203;-74
2022/04/28 10:59:34;;;;;;;10.45;5.05;;;17.10;99.90;;;;;;4965804;28;38066;-75
2022/04/28 11:02:15;;;;;;;6.60;4.10;;;16.70;99.90;;;;;;4972692;28;38106;-75
2022/04/28 11:04:54;;;;;;;9.95;4.65;;;16.90;99.90;;;;;;4975774;28;47149;-74
2022/04/28 11:07:24;;;;;;;9.00;4.90;;;16.40;99.90;;;;;;4950372;28;37637;-75
2022/04/28 11:09:57;;;;;;;9.85;5.47;;;16.10;99.90;;;;;;4958569;28;39584;-75
2022/04/28 11:12:25;;;;;;;10.90;4.10;;;16.60;99.90;;;;;;4968873;28;37466;-75
2022/04/28 11:15:03;;;;;;;11.20;5.25;;;16.90;99.90;;;;;;4953780;28;37407;-76
2022/04/28 11:17:32;;;;;;;12.07;4.55;;;17.20;99.90;;;;;;4952356;28;47277;-75
2022/04/28 11:20:04;;;;;;;9.80;5.13;;;17.50;99.90;;;;;;4950726;28;39264;-75
2022/04/28 11:22:31;;;;;;;9.63;4.80;;;17.90;99.90;;;;;;4976366;28;48363;-75
2022/04/28 11:24:57;;;;;;;11.25;4.65;;;17.80;99.90;;;;;;4954326;28;38643;-75
2022/04/28 11:27:29;;;;;;;13.52;5.18;;;17.60;99.90;;;;;;4970162;28;38634;-75
2022/04/28 11:29:59;;;;;;;10.38;5.18;;;17.70;99.90;;;;;;4953665;28;39689;-77
2022/04/28 11:32:25;;;;;;;10.27;4.60;;;17.70;99.90;;;;;;4959937;28;39438;-74
2022/04/28 11:34:52;;;;;;;7.30;4.57;;;17.50;99.90;;;;;;4974420;28;36986;-75
2022/04/28 11:37:24;;;;;;;8.35;5.05;;;17.50;99.90;;;;;;4963818;28;40488;-75
2022/04/28 11:39:52;;;;;;;9.82;4.70;;;17.50;99.90;;;;;;4971170;28;39495;-77
2022/04/28 11:42:19;;;;;;;12.27;4.90;;;17.50;99.90;;;;;;4971890;28;39431;-76
2022/04/28 11:44:53;;;;;;;8.55;4.63;;;17.40;99.90;;;;;;4970782;28;37694;-77
2022/04/28 11:47:19;;;;;;;9.57;4.93;;;17.70;99.90;;;;;;4968314;28;38580;-77
2022/04/28 11:49:49;;;;;;;12.50;5.70;;;18.30;99.90;;;;;;4972674;28;38182;-76
2022/04/28 11:52:28;;;;;;;7.22;4.30;;;18.00;99.90;;;;;;4968423;28;39198;-74
2022/04/28 11:54:59;;;;;;;9.52;4.78;;;18.00;99.90;;;;;;4968686;28;39016;-75
2022/04/28 11:57:25;;;;;;;13.07;5.50;;;17.90;99.90;;;;;;4963620;28;38949;-76
2022/04/28 11:59:51;;;;;;;11.23;5.38;;;17.60;99.90;;;;;;4966728;28;39197;-75
2022/04/28 12:02:26;;;;;;;12.25;5.18;;;17.60;99.90;;;;;;4971418;28;36625;-75
2022/04/28 12:04:52;;;;;;;9.57;4.32;;;18.40;99.90;;;;;;4964467;28;37683;-74
2022/04/28 12:07:23;;;;;;;8.63;4.70;;;18.50;99.90;;;;;;4952388;28;39970;-77
2022/04/28 12:15:24;;;;;;;9.35;4.95;;;18.30;99.90;;;;;;4971690;28;38336;-75
2022/04/28 12:21:01;;;;;;;8.73;4.45;;;17.70;99.90;;;;;;4962593;28;50224;-74
2022/04/28 12:23:28;;;;;;;7.38;4.38;;;18.10;99.90;;;;;;4945659;28;48902;-74
2022/04/28 12:26:08;;;;;;;8.52;4.95;;;18.10;99.90;;;;;;4955350;28;37210;-73
2022/04/28 12:28:39;;;;;;;13.43;6.00;;;18.00;99.90;;;;;;4956052;28;47722;-74
2022/04/28 12:31:11;;;;;;;12.30;4.72;;;18.10;99.90;;;;;;4962867;28;38758;-74
2022/04/28 12:33:39;;;;;;;10.27;4.78;;;18.10;99.90;;;;;;4973329;28;40341;-73
2022/04/28 12:36:13;;;;;;;7.45;4.63;;;18.50;99.90;;;;;;4960168;28;35156;-74
2022/04/28 12:38:48;;;;;;;7.55;4.25;;;18.80;99.90;;;;;;4968220;28;38899;-74
2022/04/28 12:41:22;;;;;;;8.73;4.38;;;18.80;99.90;;;;;;4957636;28;40293;-75
2022/04/28 12:43:58;;;;;;;10.45;4.65;;;18.60;99.90;;;;;;4962419;28;38881;-75
2022/04/28 12:46:39;;;;;;;8.30;4.85;;;19.10;99.90;;;;;;4971079;28;38285;-74
2022/04/28 12:49:10;;;;;;;9.15;4.70;;;18.90;99.90;;;;;;4969710;28;39476;-75
2022/04/28 12:51:47;;;;;;;7.28;4.00;;;19.00;99.90;;;;;;4953015;28;38872;-75
2022/04/28 12:54:25;;;;;;;8.98;4.88;;;19.30;99.90;;;;;;4971559;28;37840;-75
2022/04/28 12:57:03;;;;;;;10.23;4.78;;;19.20;99.90;;;;;;4973494;28;37794;-74
2022/04/28 12:59:35;;;;;;;7.10;4.28;;;19.10;99.90;;;;;;4954664;28;47565;-76
2022/04/28 13:02:01;;;;;;;9.20;4.50;;;19.20;99.90;;;;;;4957814;28;37928;-75
2022/04/28 13:04:27;;;;;;;8.60;4.47;;;19.60;99.90;;;;;;4942581;28;47242;-76
2022/04/28 13:06:56;;;;;;;9.52;4.72;;;20.00;99.90;;;;;;4960769;28;38008;-75
2022/04/28 13:09:22;;;;;;;13.82;5.55;;;19.60;99.90;;;;;;4957600;28;39417;-72
2022/04/28 13:11:49;;;;;;;9.02;5.18;;;20.00;99.90;;;;;;4960411;28;39322;-76
2022/04/28 13:14:18;;;;;;;12.75;5.35;;;19.10;99.90;;;;;;4947709;28;39103;-76
2022/04/28 13:16:47;;;;;;;10.05;4.82;;;18.90;99.90;;;;;;4965953;28;39359;-76
2022/04/28 13:19:15;;;;;;;10.48;4.85;;;18.80;99.90;;;;;;4956783;28;39638;-73
2022/04/28 13:21:41;;;;;;;9.70;5.03;;;19.10;99.90;;;;;;4971601;28;38675;-75
2022/04/28 13:24:08;;;;;;;7.43;4.75;;;19.60;99.90;;;;;;4972240;28;38330;-75
2022/04/28 13:26:35;;;;;;;10.15;5.22;;;19.80;99.90;;;;;;4962886;28;38920;-75
2022/04/28 13:29:02;;;;;;;8.25;5.18;;;19.70;99.90;;;;;;4975408;28;38413;-75
2022/04/28 13:31:28;;;;;;;13.35;5.95;;;19.70;99.90;;;;;;4954009;28;47200;-74